Time;durP1;ratioP1;P1;durP2;ratioP2;P2;SDS_P1;SDS_P2;PMS_P1;PMS_P2;Temp;Humidity;BMP_temperature;BMP_pressure;BME280_temperature;BME280_humidity;BME280_pressure;Samples;Min_cycle;Max_cycle;Signal;HPM_P1;HPM_P2
2021/04/15 00:01:00;;;;;;;13.65;5.85;;;;;;;8.33;100.00;100271.33;1827476;78;21152;-51
2021/04/15 00:03:30;;;;;;;11.03;5.62;;;;;;;8.32;100.00;100265.09;1827938;78;21807;-51
2021/04/15 00:06:01;;;;;;;7.40;5.75;;;;;;;8.31;100.00;100266.91;1827790;78;21596;-52
2021/04/15 00:08:28;;;;;;;12.33;5.70;;;;;;;8.31;100.00;100264.24;1827889;78;21168;-51
2021/04/15 00:10:58;;;;;;;11.88;5.85;;;;;;;8.30;100.00;100262.95;1827985;78;21110;-52
2021/04/15 00:13:41;;;;;;;10.60;5.08;;;;;;;8.32;100.00;100267.77;1827922;78;21066;-51
2021/04/15 00:16:10;;;;;;;10.18;5.45;;;;;;;8.33;100.00;100262.84;1828133;78;21133;-52
2021/04/15 00:18:39;;;;;;;10.88;6.08;;;;;;;8.34;100.00;100257.91;1794842;78;21163;-50
2021/04/15 00:21:07;;;;;;;10.32;6.20;;;;;;;8.33;100.00;100260.65;1760397;81;21065;-49
2021/04/15 00:23:35;;;;;;;11.10;6.25;;;;;;;8.34;100.00;100254.37;1791684;80;21498;-50
2021/04/15 00:26:04;;;;;;;16.23;6.17;;;;;;;8.31;100.00;100257.56;1774567;80;21059;-50
2021/04/15 00:28:32;;;;;;;12.00;5.92;;;;;;;8.31;100.00;100256.23;1755719;81;21569;-51
2021/04/15 00:30:59;;;;;;;15.58;6.78;;;;;;;8.32;100.00;100254.41;1771278;80;21138;-50
2021/04/15 00:33:29;;;;;;;15.45;6.30;;;;;;;8.34;100.00;100257.05;1754753;81;21192;-50
2021/04/15 00:35:57;;;;;;;15.13;6.50;;;;;;;8.34;100.00;100255.71;1771293;81;21080;-50
2021/04/15 00:38:25;;;;;;;11.60;6.62;;;;;;;8.35;100.00;100249.44;1754833;81;21042;-50
2021/04/15 00:40:54;;;;;;;11.33;7.20;;;;;;;8.35;100.00;100256.12;1771302;81;21143;-51
2021/04/15 00:43:23;;;;;;;11.25;5.95;;;;;;;8.33;100.00;100251.30;1754757;81;21125;-51
2021/04/15 00:45:52;;;;;;;14.63;6.60;;;;;;;8.33;100.00;100249.97;1771323;80;21199;-51
2021/04/15 00:48:38;;;;;;;19.27;6.80;;;;;;;8.30;100.00;100250.48;1754798;81;21129;-51
2021/04/15 00:51:27;;;;;;;21.55;7.42;;;;;;;8.30;100.00;100251.81;1771188;81;21584;-51
2021/04/15 00:54:05;;;;;;;23.20;8.45;;;;;;;8.31;100.00;100239.31;1729867;81;21459;-51
2021/04/15 00:56:33;;;;;;;15.30;7.40;;;;;;;8.31;100.00;100230.86;1776658;80;21102;-50
2021/04/15 00:59:03;;;;;;;17.40;8.68;;;;;;;8.29;100.00;100230.04;1789453;80;21109;-50
2021/04/15 01:01:32;;;;;;;16.12;8.20;;;;;;;8.26;100.00;100230.11;1821737;78;21169;-50
2021/04/15 01:04:00;;;;;;;14.55;8.20;;;;;;;8.24;100.00;100225.77;1810342;79;21150;-50
2021/04/15 01:06:28;;;;;;;17.17;8.70;;;;;;;8.22;100.00;100226.28;1759305;80;21335;-50
2021/04/15 01:08:59;;;;;;;16.57;7.90;;;;;;;8.22;100.00;100229.81;1810320;79;21052;-50
2021/04/15 01:12:06;;;;;;;17.55;8.20;;;;;;;8.24;100.00;100211.94;1759429;80;21193;-50
2021/04/15 01:15:01;;;;;;;23.35;8.93;;;;;;;8.24;100.00;100211.94;1810330;79;21150;-50
2021/04/15 01:17:38;;;;;;;14.03;8.13;;;;;;;8.23;100.00;100222.21;1809711;78;21106;-50
2021/04/15 01:20:27;;;;;;;16.23;8.30;;;;;;;8.26;100.00;100211.42;1825085;78;21187;-50
2021/04/15 01:23:54;;;;;;;18.15;8.40;;;;;;;8.27;100.00;100206.48;1792646;80;21199;-50
2021/04/15 01:26:59;;;;;;;18.82;8.75;;;;;;;8.30;100.00;100197.51;1825182;78;21064;-49
2021/04/15 01:29:55;;;;;;;19.37;8.70;;;;;;;8.21;100.00;100203.18;1786402;78;21173;-51
2021/04/15 01:32:29;;;;;;;13.30;8.43;;;;;;;8.11;100.00;100199.95;1792583;80;21113;-50
2021/04/15 01:35:13;;;;;;;14.97;8.63;;;;;;;8.09;100.00;100191.12;1824930;78;21194;-49
2021/04/15 01:37:58;;;;;;;21.48;8.15;;;;;;;8.10;100.00;100185.70;1824808;78;21179;-50
2021/04/15 01:40:40;;;;;;;11.12;7.72;;;;;;;8.08;100.00;100178.21;1797580;78;21080;-50
2021/04/15 01:43:29;;;;;;;12.25;8.30;;;;;;;8.07;100.00;100182.25;1824974;78;21151;-50
2021/04/15 01:45:57;;;;;;;16.48;8.08;;;;;;;8.02;100.00;100180.62;1824935;78;21052;-50
2021/04/15 01:48:52;;;;;;;15.78;7.87;;;;;;;8.01;100.00;100174.02;1824965;78;21358;-50
2021/04/15 01:51:29;;;;;;;14.27;8.93;;;;;;;8.01;100.00;100176.20;1825195;78;21123;-50
2021/04/15 01:54:14;;;;;;;16.52;9.25;;;;;;;8.00;100.00;100174.46;1797774;78;21134;-50
2021/04/15 01:56:49;;;;;;;19.00;9.60;;;;;;;8.01;100.00;100182.87;1817986;78;21107;-50
2021/04/15 01:59:30;;;;;;;16.10;9.90;;;;;;;8.03;100.00;100174.35;1756666;81;21110;-50
2021/04/15 02:02:02;;;;;;;15.15;9.53;;;;;;;8.09;100.00;100172.42;1804072;79;21697;-50
2021/04/15 02:04:39;;;;;;;16.30;9.90;;;;;;;8.14;100.00;100175.80;1803961;79;21139;-50
2021/04/15 02:07:13;;;;;;;18.40;10.05;;;;;;;8.15;100.00;100176.21;1776983;79;21131;-50
2021/04/15 02:09:42;;;;;;;17.17;9.53;;;;;;;8.17;100.00;100170.36;1756712;81;21121;-50
2021/04/15 02:12:15;;;;;;;16.42;10.00;;;;;;;8.20;100.00;100175.58;1804032;79;21146;-50
2021/04/15 02:14:44;;;;;;;22.10;10.30;;;;;;;8.16;100.00;100176.63;1803532;79;21378;-50
2021/04/15 02:17:11;;;;;;;17.73;10.00;;;;;;;8.19;100.00;100178.33;1756649;81;21189;-50
2021/04/15 02:19:46;;;;;;;18.55;10.20;;;;;;;8.22;100.00;100175.55;1796277;79;21468;-50
2021/04/15 02:22:40;;;;;;;18.90;11.08;;;;;;;8.26;100.00;100174.03;1795444;80;21068;-50
2021/04/15 02:25:38;;;;;;;21.53;10.70;;;;;;;8.31;100.00;100172.55;1794651;79;21433;-50
2021/04/15 02:28:35;;;;;;;18.32;10.35;;;;;;;8.38;100.00;100175.87;1783865;79;21697;-51
2021/04/15 02:31:17;;;;;;;18.45;10.90;;;;;;;8.41;100.00;100177.98;1794935;79;21078;-51
2021/04/15 02:33:55;;;;;;;19.75;11.80;;;;;;;8.44;100.00;100172.53;1828156;78;21072;-51
2021/04/15 02:36:25;;;;;;;16.02;10.23;;;;;;;8.44;100.00;100163.63;1828097;78;21537;-51
2021/04/15 02:39:00;;;;;;;19.73;10.25;;;;;;;8.46;100.00;100172.45;1828255;78;21469;-51
2021/04/15 02:41:32;;;;;;;16.05;9.80;;;;;;;8.46;100.00;100169.79;1828196;78;21145;-51
2021/04/15 02:44:06;;;;;;;21.55;11.25;;;;;;;8.47;100.00;100174.20;1795602;79;21546;-51
2021/04/15 02:46:46;;;;;;;18.20;10.30;;;;;;;8.47;100.00;100170.20;1795649;79;21057;-51
2021/04/15 02:49:15;;;;;;;17.48;9.95;;;;;;;8.49;100.00;100176.84;1828048;78;21481;-51
2021/04/15 02:51:51;;;;;;;16.40;9.33;;;;;;;8.49;100.00;100172.83;1795524;79;21079;-51
2021/04/15 02:54:25;;;;;;;;;;;;;;;8.48;100.00;100173.28;1798273;79;21352;-50
2021/04/15 02:57:01;;;;;;;18.48;9.75;;;;;;;8.47;100.00;100182.22;1785494;80;20212;-50
2021/04/15 02:59:46;;;;;;;15.53;9.48;;;;;;;8.42;100.00;100174.84;1757915;81;21161;-50
2021/04/15 03:02:28;;;;;;;14.83;8.95;;;;;;;8.40;100.00;100182.92;1780031;80;21047;-51
2021/04/15 03:05:04;;;;;;;13.60;8.88;;;;;;;8.39;100.00;100182.97;1757819;81;21094;-50
2021/04/15 03:07:33;;;;;;;16.12;8.95;;;;;;;8.37;100.00;100182.14;1780062;80;21272;-50
2021/04/15 03:10:03;;;;;;;15.00;8.85;;;;;;;8.36;100.00;100186.60;1757919;81;21207;-51
2021/04/15 03:12:39;;;;;;;15.18;9.85;;;;;;;8.34;100.00;100187.13;1779899;80;21138;-51
2021/04/15 03:15:17;;;;;;;15.60;8.58;;;;;;;8.33;100.00;100183.19;1729355;81;21090;-50
2021/04/15 03:17:50;;;;;;;12.10;8.60;;;;;;;8.31;100.00;100188.12;1782182;79;21463;-51
2021/04/15 03:20:23;;;;;;;15.90;8.95;;;;;;;8.29;100.00;100183.30;1827843;78;21412;-51
2021/04/15 03:23:04;;;;;;;17.02;10.72;;;;;;;8.29;100.00;100185.97;1827717;78;21101;-51
2021/04/15 03:25:32;;;;;;;19.00;11.75;;;;;;;8.29;100.00;100193.09;1827141;78;21121;-50
2021/04/15 03:28:11;;;;;;;18.20;12.03;;;;;;;8.28;100.00;100189.53;1826715;78;21165;-49
2021/04/15 03:30:56;;;;;;;23.87;12.47;;;;;;;8.30;100.00;100193.05;1821700;78;21140;-50
2021/04/15 03:33:49;;;;;;;20.90;12.65;;;;;;;8.31;100.00;100199.25;1821705;78;21368;-50
2021/04/15 03:36:25;;;;;;;18.02;11.38;;;;;;;8.33;100.00;100197.88;1821698;78;21055;-50
2021/04/15 03:38:58;;;;;;;15.25;10.40;;;;;;;8.35;100.00;100203.56;1821699;78;21478;-50
2021/04/15 03:41:31;;;;;;;19.67;10.72;;;;;;;8.37;100.00;100203.52;1821852;78;21063;-50
2021/04/15 03:44:13;;;;;;;12.43;8.03;;;;;;;8.38;100.00;100206.59;1821966;78;21151;-50
2021/04/15 03:47:13;;;;;;;12.37;7.83;;;;;;;8.39;100.00;100205.67;1820752;78;21666;-49
2021/04/15 03:49:45;;;;;;;11.90;8.20;;;;;;;8.38;100.00;100205.27;1821826;78;21157;-51
2021/04/15 03:52:18;;;;;;;11.38;7.03;;;;;;;8.38;100.00;100211.94;1821960;78;21110;-51
2021/04/15 03:54:49;;;;;;;10.13;7.15;;;;;;;8.38;100.00;100214.61;1821863;78;21039;-49
2021/04/15 03:57:20;;;;;;;10.68;7.60;;;;;;;8.38;100.00;100211.94;1771630;78;21064;-50
2021/04/15 04:00:05;;;;;;;9.93;6.80;;;;;;;8.39;100.00;100217.69;1738422;81;21204;-50
2021/04/15 04:02:39;;;;;;;10.13;6.72;;;;;;;8.39;100.00;100219.87;1756561;81;21123;-51
2021/04/15 04:05:23;;;;;;;9.08;7.12;;;;;;;8.42;100.00;100226.92;1757233;81;21076;-50
2021/04/15 04:07:59;;;;;;;10.70;7.50;;;;;;;8.43;100.00;100232.68;1724065;81;21187;-51
2021/04/15 04:10:33;;;;;;;12.37;7.40;;;;;;;8.43;100.00;100232.68;1757211;81;21072;-50
2021/04/15 04:13:33;;;;;;;13.60;7.95;;;;;;;8.45;100.00;100234.83;1757276;81;21227;-51
2021/04/15 04:16:24;;;;;;;17.87;8.63;;;;;;;8.48;100.00;100238.73;1757119;81;21143;-50
2021/04/15 04:19:17;;;;;;;17.05;9.03;;;;;;;8.49;100.00;100244.48;1785625;79;21091;-51
2021/04/15 04:21:59;;;;;;;14.15;9.65;;;;;;;8.50;100.00;100252.08;1805877;79;21067;-50
2021/04/15 04:24:51;;;;;;;13.78;8.28;;;;;;;8.50;100.00;100252.94;1805797;79;21047;-51
2021/04/15 04:27:43;;;;;;;13.20;8.85;;;;;;;8.52;100.00;100254.23;1805363;79;21201;-51
2021/04/15 04:30:19;;;;;;;15.23;9.28;;;;;;;8.54;100.00;100256.39;1808572;79;21119;-50
2021/04/15 04:32:46;;;;;;;13.43;8.80;;;;;;;8.56;100.00;100254.53;1808678;79;21090;-50
2021/04/15 04:35:20;;;;;;;14.28;9.08;;;;;;;8.59;100.00;100252.64;1808918;79;21055;-50
2021/04/15 04:37:51;;;;;;;11.53;8.03;;;;;;;8.66;100.00;100255.09;1809075;79;21432;-51
2021/04/15 04:40:35;;;;;;;15.45;8.60;;;;;;;8.74;100.00;100257.05;1808920;79;21189;-50
2021/04/15 04:43:14;;;;;;;13.87;9.23;;;;;;;8.82;100.00;100260.76;1809071;79;21118;-50
2021/04/15 04:45:41;;;;;;;13.90;9.13;;;;;;;8.91;100.00;100270.25;1795741;79;21122;-51
2021/04/15 04:48:26;;;;;;;14.85;9.85;;;;;;;9.01;100.00;100269.02;1808971;79;21094;-51
2021/04/15 04:51:12;;;;;;;17.33;10.00;;;;;;;9.08;100.00;100271.86;1809222;79;21107;-52
2021/04/15 04:53:41;;;;;;;14.70;9.68;;;;;;;9.16;100.00;100276.45;1809006;79;21366;-50
2021/04/15 04:56:32;;;;;;;16.30;11.00;;;;;;;9.23;100.00;100274.43;1807429;79;21173;-50
2021/04/15 04:59:18;;;;;;;15.80;9.80;;;;;;;9.27;100.00;100280.55;1795663;79;21122;-51
2021/04/15 05:01:45;;;;;;;22.62;10.58;;;;;;;9.33;100.00;100282.13;1809606;79;21217;-51
2021/04/15 05:04:13;;;;;;;15.68;11.12;;;;;;;9.34;100.00;100288.75;1795678;79;21161;-51
2021/04/15 05:06:42;;;;;;;16.27;11.22;;;;;;;9.35;100.00;100293.16;1828175;78;21692;-51
2021/04/15 05:09:26;;;;;;;15.95;10.65;;;;;;;9.36;100.00;100293.57;1810314;79;21147;-51
2021/04/15 05:11:55;;;;;;;15.28;10.13;;;;;;;9.36;100.00;100298.06;1769506;79;21149;-51
2021/04/15 05:14:25;;;;;;;14.15;10.13;;;;;;;9.37;100.00;100301.14;1828151;78;21118;-51
2021/04/15 05:17:19;;;;;;;18.25;11.70;;;;;;;9.40;100.00;100297.91;1810370;79;21514;-51
2021/04/15 05:19:49;;;;;;;14.15;10.20;;;;;;;9.48;100.00;100306.09;1795322;79;21193;-50
2021/04/15 05:22:43;;;;;;;15.30;10.50;;;;;;;9.56;100.00;100308.01;1766737;80;21167;-50
2021/04/15 05:25:19;;;;;;;14.10;9.63;;;;;;;9.63;100.00;100304.19;1735458;80;21173;-52
2021/04/15 05:27:48;;;;;;;14.05;10.00;;;;;;;9.68;100.00;100318.27;1827814;78;21079;-52
2021/04/15 05:30:27;;;;;;;15.75;10.78;;;;;;;9.70;100.00;100308.81;1773829;80;21070;-51
2021/04/15 05:32:59;;;;;;;15.08;10.32;;;;;;;9.71;100.00;100307.43;1800064;79;21359;-52
2021/04/15 05:35:36;;;;;;;14.33;9.85;;;;;;;9.75;100.00;100325.11;1800102;79;21489;-50
2021/04/15 05:38:06;;;;;;;17.25;11.28;;;;;;;9.86;100.00;100323.84;1783926;80;21075;-50
2021/04/15 05:40:35;;;;;;;18.27;11.33;;;;;;;9.97;100.00;100322.94;1786706;80;21169;-51
2021/04/15 05:43:29;;;;;;;18.20;11.18;;;;;;;10.04;100.00;100325.77;1783334;80;21130;-50
2021/04/15 05:46:03;;;;;;;15.85;10.28;;;;;;;10.10;100.00;100325.15;1786588;80;21284;-51
2021/04/15 05:48:30;;;;;;;14.87;11.08;;;;;;;10.16;100.00;100330.25;1758138;80;21162;-53
2021/04/15 05:51:03;;;;;;;15.08;10.82;;;;;;;10.14;100.00;100333.46;1786127;80;21169;-52
2021/04/15 05:53:38;;;;;;;18.25;12.13;;;;;;;10.17;100.00;100336.02;1757684;80;21158;-52
2021/04/15 05:56:10;;;;;;;19.27;12.65;;;;;;;10.21;100.00;100339.45;1782748;80;21475;-52
2021/04/15 05:58:46;;;;;;;17.30;11.93;;;;;;;10.22;100.00;100342.05;1734409;82;21218;-52
2021/04/15 06:01:30;;;;;;;16.52;11.03;;;;;;;10.22;100.00;100343.39;1734611;82;21653;-52
2021/04/15 06:04:27;;;;;;;14.38;9.90;;;;;;;10.21;100.00;100338.97;1734733;82;21075;-52
2021/04/15 06:06:56;;;;;;;15.70;9.93;;;;;;;10.19;100.00;100342.18;1734545;82;21102;-52
2021/04/15 06:09:23;;;;;;;16.80;10.08;;;;;;;10.21;100.00;100344.33;1734614;82;21063;-52
2021/04/15 06:12:11;;;;;;;21.55;10.80;;;;;;;10.25;100.00;100344.60;1734711;82;21728;-52
2021/04/15 06:15:07;;;;;;;15.60;9.55;;;;;;;10.27;100.00;100349.43;1734438;82;21198;-52
2021/04/15 06:17:58;;;;;;;15.40;9.23;;;;;;;10.37;100.00;100339.70;1872555;76;28619;-51
2021/04/15 06:20:44;;;;;;;14.43;9.20;;;;;;;10.39;100.00;100348.55;1824960;77;20962;-51
2021/04/15 06:23:23;;;;;;;11.85;7.70;;;;;;;10.56;100.00;100338.49;1824823;78;22323;-51
2021/04/15 06:25:52;;;;;;;13.70;9.18;;;;;;;10.73;99.46;100348.05;1824671;78;20933;-51
2021/04/15 06:28:27;;;;;;;11.83;8.13;;;;;;;10.88;98.37;100349.69;1824759;78;20928;-51
2021/04/15 06:31:17;;;;;;;12.40;7.78;;;;;;;10.98;97.12;100355.53;1804787;78;20937;-51
2021/04/15 06:33:45;;;;;;;13.80;7.90;;;;;;;11.03;95.41;100354.86;1824971;78;21028;-51
2021/04/15 06:36:36;;;;;;;11.15;7.85;;;;;;;11.07;94.78;100359.14;1824772;78;21677;-51
2021/04/15 06:39:24;;;;;;;13.25;8.28;;;;;;;11.12;94.36;100361.15;1822155;78;21011;-51
2021/04/15 06:42:30;;;;;;;13.05;7.87;;;;;;;11.16;93.69;100364.58;1824771;78;20933;-51
2021/04/15 06:45:26;;;;;;;9.43;6.95;;;;;;;11.15;93.04;100372.23;1824266;78;21196;-52
2021/04/15 06:48:33;;;;;;;14.05;7.25;;;;;;;11.11;92.01;100370.62;1824801;78;20960;-51
2021/04/15 06:51:39;;;;;;;13.93;8.03;;;;;;;10.97;90.79;100378.78;1824459;78;21368;-51
2021/04/15 06:54:33;;;;;;;12.00;8.00;;;;;;;10.85;91.74;100382.86;1824677;78;21026;-52
2021/04/15 06:57:46;;;;;;;11.68;8.38;;;;;;;10.78;92.09;100385.41;1832101;78;21052;-51
2021/04/15 07:01:00;;;;;;;14.78;8.33;;;;;;;10.72;92.74;100393.68;1840852;78;21563;-52
2021/04/15 07:03:45;;;;;;;13.83;8.63;;;;;;;10.69;93.37;100386.66;1841170;78;26478;-51
2021/04/15 07:06:21;;;;;;;15.23;9.13;;;;;;;10.70;93.58;100403.60;1807828;79;21528;-51
2021/04/15 07:09:10;;;;;;;13.28;10.15;;;;;;;10.68;94.07;100405.48;1807169;78;21187;-51
2021/04/15 07:12:30;;;;;;;13.78;9.95;;;;;;;10.65;94.56;100405.61;1775051;79;21596;-51
2021/04/15 07:15:33;;;;;;;15.93;10.30;;;;;;;10.68;95.00;100415.75;1807309;79;21152;-52
2021/04/15 07:18:23;;;;;;;14.80;9.18;;;;;;;10.73;95.57;100411.06;1781882;80;21053;-52
2021/04/15 07:21:25;;;;;;;14.47;8.58;;;;;;;10.81;95.65;100410.75;1792829;79;22668;-51
2021/04/15 07:24:26;;;;;;;12.50;6.30;;;;;;;10.86;95.68;100415.93;1792860;80;21009;-52
2021/04/15 07:27:18;;;;;;;8.38;5.10;;;;;;;10.88;95.87;100414.05;1792096;80;21117;-51
2021/04/15 07:30:02;;;;;;;4.83;3.80;;;;;;;10.90;95.84;100416.20;1792503;80;21063;-51
2021/04/15 07:33:05;;;;;;;5.55;3.95;;;;;;;10.91;95.73;100423.77;1792586;80;21045;-52
2021/04/15 07:35:57;;;;;;;6.87;4.30;;;;;;;10.92;95.72;100425.50;1792466;80;21381;-51
2021/04/15 07:38:33;;;;;;;9.53;5.62;;;;;;;10.89;95.63;100434.09;1792539;80;21109;-51
2021/04/15 07:41:28;;;;;;;8.33;5.20;;;;;;;10.89;95.49;100438.59;1791155;80;21137;-51
2021/04/15 07:44:26;;;;;;;6.13;4.43;;;;;;;10.81;95.13;100435.34;1792663;80;21133;-51
2021/04/15 07:47:25;;;;;;;8.43;5.45;;;;;;;10.71;95.08;100444.22;1792198;80;21475;-50
2021/04/15 07:50:06;;;;;;;7.00;5.03;;;;;;;10.67;95.14;100449.31;1792283;80;21253;-50
2021/04/15 07:53:15;;;;;;;8.25;4.85;;;;;;;10.59;95.16;100450.50;1792140;80;21112;-50
2021/04/15 07:56:11;;;;;;;7.47;5.28;;;;;;;10.53;95.12;100457.45;1781574;80;21511;-52
2021/04/15 07:59:05;;;;;;;6.55;4.60;;;;;;;10.41;95.52;100453.91;1796248;79;21062;-51
2021/04/15 08:02:05;;;;;;;6.65;4.45;;;;;;;10.37;96.06;100454.93;1796455;79;21109;-52
2021/04/15 08:05:08;;;;;;;8.80;4.62;;;;;;;10.35;95.81;100460.33;1796417;79;21173;-50
2021/04/15 08:07:54;;;;;;;7.25;4.92;;;;;;;10.27;95.70;100461.97;1796180;78;21129;-51
2021/04/15 08:10:33;;;;;;;7.37;4.65;;;;;;;10.22;96.27;100456.40;1788793;79;21423;-51
2021/04/15 08:13:32;;;;;;;11.20;4.53;;;;;;;10.17;96.23;100464.60;1787638;79;21101;-50
2021/04/15 08:16:31;;;;;;;8.10;4.15;;;;;;;10.10;95.82;100475.16;1786843;78;21133;-51
2021/04/15 08:19:18;;;;;;;5.92;4.00;;;;;;;10.03;96.28;100471.34;1805480;77;21102;-50
2021/04/15 08:22:20;;;;;;;6.60;4.35;;;;;;;10.02;97.05;100466.05;1818890;77;21135;-51
2021/04/15 08:25:18;;;;;;;5.90;3.90;;;;;;;10.06;97.38;100474.83;1808574;78;21119;-50
2021/04/15 08:28:30;;;;;;;10.28;4.20;;;;;;;10.15;97.12;100474.51;1834365;77;28014;-50
2021/04/15 08:31:19;;;;;;;8.88;4.85;;;;;;;10.10;96.84;100481.84;1778428;79;21147;-55
2021/04/15 08:34:13;;;;;;;8.65;5.10;;;;;;;10.06;96.49;100481.53;1795700;79;21363;-55
2021/04/15 08:37:06;;;;;;;8.25;5.17;;;;;;;10.00;96.40;100482.17;1800048;79;20904;-58
2021/04/15 08:39:58;;;;;;;15.48;7.55;;;;;;;9.97;96.83;100481.44;1786936;79;21197;-57
2021/04/15 08:43:04;;;;;;;17.95;8.23;;;;;;;10.00;97.18;100488.87;1813281;78;21106;-57
2021/04/15 08:45:48;;;;;;;14.78;7.25;;;;;;;10.04;97.15;100482.95;1753788;78;21035;-55
2021/04/15 08:48:38;;;;;;;11.60;6.87;;;;;;;10.08;96.30;100493.09;1797446;79;21331;-56
2021/04/15 08:51:55;;;;;;;10.48;7.25;;;;;;;10.09;96.28;100493.50;1725625;79;21506;-56
2021/04/15 08:55:02;;;;;;;12.70;7.60;;;;;;;10.10;96.16;100505.95;1784532;80;20999;-56
2021/04/15 08:57:41;;;;;;;9.75;6.58;;;;;;;10.17;95.92;100496.30;1733683;82;21126;-57
2021/04/15 09:00:24;;;;;;;8.75;6.25;;;;;;;10.24;95.07;100498.25;1740450;82;21139;-57
2021/04/15 09:03:16;;;;;;;10.43;6.15;;;;;;;10.37;94.26;100507.19;1738773;81;21540;-57
2021/04/15 09:06:21;;;;;;;10.50;6.00;;;;;;;10.49;93.72;100507.22;1751834;81;21138;-56
2021/04/15 09:09:13;;;;;;;8.28;5.40;;;;;;;10.61;93.11;100513.45;1761376;81;21075;-57
2021/04/15 09:12:00;;;;;;;7.40;5.45;;;;;;;10.85;92.60;100518.30;1751822;81;20964;-57
2021/04/15 09:14:40;;;;;;;;;;;;;;;11.04;91.51;100520.24;1754529;81;21462;-57
2021/04/15 09:17:14;;;;;;;8.93;5.45;;;;;;;11.15;90.21;100523.34;1751813;81;20145;-57
2021/04/15 09:20:12;;;;;;;7.72;4.72;;;;;;;11.22;89.33;100527.14;1728601;82;21136;-57
2021/04/15 09:23:19;;;;;;;7.53;5.35;;;;;;;11.29;88.58;100528.63;1737414;81;21137;-56
2021/04/15 09:26:20;;;;;;;7.67;4.72;;;;;;;11.33;87.76;100524.86;1732754;81;21094;-55
2021/04/15 09:29:02;;;;;;;6.95;4.55;;;;;;;11.32;87.60;100523.12;1770295;81;21110;-57
2021/04/15 09:31:55;;;;;;;7.95;4.60;;;;;;;11.32;87.53;100536.09;1755390;81;21197;-57
2021/04/15 09:34:49;;;;;;;6.95;4.40;;;;;;;11.30;87.59;100527.68;1779448;80;21159;-57
2021/04/15 09:38:05;;;;;;;7.33;4.72;;;;;;;11.29;87.43;100529.96;1765243;81;20933;-56
2021/04/15 09:41:11;;;;;;;11.28;4.97;;;;;;;11.25;86.86;100531.03;1763023;81;21131;-56
2021/04/15 09:43:52;;;;;;;11.73;5.97;;;;;;;11.22;86.46;100544.58;1764767;81;21135;-57
2021/04/15 09:46:34;;;;;;;11.03;5.53;;;;;;;11.22;86.79;100541.89;1760309;80;21372;-58
2021/04/15 09:49:28;;;;;;;7.62;4.37;;;;;;;11.34;86.89;100548.56;1761362;80;21187;-57
2021/04/15 09:52:22;;;;;;;6.53;5.00;;;;;;;11.48;86.02;100553.36;1761555;80;21130;-57
2021/04/15 09:55:08;;;;;;;8.13;5.22;;;;;;;11.59;85.27;100549.73;1749632;80;21555;-57
2021/04/15 09:57:47;;;;;;;6.20;4.60;;;;;;;11.69;84.18;100549.77;1735761;82;21800;-57
2021/04/15 10:00:28;;;;;;;7.53;5.20;;;;;;;11.83;83.61;100560.39;1776024;80;21387;-57
2021/04/15 10:03:24;;;;;;;7.87;4.53;;;;;;;11.98;82.56;100563.73;1778881;80;21090;-57
2021/04/15 10:06:20;;;;;;;5.90;4.42;;;;;;;12.09;81.02;100554.37;1780158;80;21157;-57
2021/04/15 10:09:06;;;;;;;6.50;4.42;;;;;;;12.11;80.20;100563.23;1780062;80;21173;-57
2021/04/15 10:12:04;;;;;;;8.53;4.58;;;;;;;12.12;80.40;100564.98;1778992;80;21085;-57
2021/04/15 10:15:04;;;;;;;5.33;4.30;;;;;;;12.16;79.72;100569.27;1779829;80;21202;-57
2021/04/15 10:17:59;;;;;;;5.97;4.12;;;;;;;12.11;79.07;100569.95;1778560;80;21011;-56
2021/04/15 10:20:50;;;;;;;8.65;4.28;;;;;;;12.11;78.97;100578.02;1719279;83;21089;-56
2021/04/15 10:23:48;;;;;;;6.60;4.60;;;;;;;12.14;78.76;100574.70;1749163;82;21170;-58
2021/04/15 10:26:47;;;;;;;5.40;4.40;;;;;;;12.18;78.39;100580.82;1748999;81;21077;-58
2021/04/15 10:29:41;;;;;;;5.37;4.53;;;;;;;12.19;78.22;100579.87;1743961;82;21720;-57
2021/04/15 10:32:24;;;;;;;7.37;4.60;;;;;;;12.18;77.74;100583.51;1748814;82;21185;-57
2021/04/15 10:35:23;;;;;;;6.30;4.90;;;;;;;12.18;77.98;100587.09;1749124;82;21173;-56
2021/04/15 10:38:32;;;;;;;7.92;4.47;;;;;;;12.30;78.20;100587.01;1749015;82;21186;-56
2021/04/15 10:41:46;;;;;;;5.80;4.15;;;;;;;12.42;77.60;100586.03;1744365;81;20960;-56
2021/04/15 10:44:41;;;;;;;6.67;4.50;;;;;;;12.46;76.94;100593.02;1722611;83;21084;-57
2021/04/15 10:47:44;;;;;;;4.70;4.10;;;;;;;12.42;76.34;100598.13;1717757;83;21205;-57
2021/04/15 10:50:54;;;;;;;6.20;4.15;;;;;;;12.45;76.31;100593.95;1749114;82;21106;-58
2021/04/15 10:53:50;;;;;;;5.15;3.92;;;;;;;12.41;75.88;100600.42;1749060;82;21122;-57
2021/04/15 10:56:30;;;;;;;5.83;4.35;;;;;;;12.37;75.87;100598.82;1711493;83;21170;-58
2021/04/15 10:59:08;;;;;;;6.15;4.65;;;;;;;12.31;76.27;100602.20;1716705;83;21556;-57
2021/04/15 11:01:46;;;;;;;5.22;4.25;;;;;;;12.32;76.34;100602.59;1716679;83;20957;-57
2021/04/15 11:04:22;;;;;;;6.83;4.67;;;;;;;12.35;76.32;100607.42;1743056;82;21095;-57
2021/04/15 11:06:57;;;;;;;6.03;4.50;;;;;;;12.40;76.48;100617.05;1742921;82;21166;-56
2021/04/15 11:09:41;;;;;;;6.10;4.55;;;;;;;12.51;76.04;100611.18;1741880;82;21083;-57
2021/04/15 11:12:26;;;;;;;5.55;4.78;;;;;;;12.56;75.67;100614.53;1742996;82;21149;-57
2021/04/15 11:15:22;;;;;;;7.12;4.28;;;;;;;12.54;75.59;100616.41;1743021;81;21483;-56
2021/04/15 11:17:53;;;;;;;6.97;4.62;;;;;;;12.43;75.79;100618.70;1746520;81;21186;-57
2021/04/15 11:20:25;;;;;;;6.20;4.30;;;;;;;12.46;76.21;100622.59;1740647;81;21154;-58
2021/04/15 11:23:15;;;;;;;8.58;4.87;;;;;;;12.59;76.07;100614.38;1769930;80;21138;-57
2021/04/15 11:25:47;;;;;;;7.28;4.72;;;;;;;12.74;75.55;100614.14;1753100;80;21450;-56
2021/04/15 11:28:26;;;;;;;7.17;4.95;;;;;;;12.83;75.21;100606.12;1759844;80;21137;-59
2021/04/15 11:31:03;;;;;;;8.40;5.05;;;;;;;12.92;74.77;100605.27;1757746;81;21419;-57
2021/04/15 11:33:52;;;;;;;8.10;7.05;;;;;;;13.01;74.04;100612.93;1792835;80;21572;-57
2021/04/15 11:36:26;;;;;;;9.33;8.25;;;;;;;12.97;73.29;100609.98;1797062;78;21146;-57
2021/04/15 11:39:09;;;;;;;11.43;8.65;;;;;;;12.70;73.86;100600.89;1795455;80;21255;-58
2021/04/15 11:41:58;;;;;;;9.30;8.40;;;;;;;12.44;74.46;100617.30;1795245;80;20927;-57
2021/04/15 11:44:32;;;;;;;10.15;8.38;;;;;;;12.19;75.53;100616.16;1795120;80;21031;-56
2021/04/15 11:47:22;;;;;;;9.78;8.78;;;;;;;11.88;76.55;100610.27;1795284;80;21621;-56
2021/04/15 11:49:50;;;;;;;12.50;9.65;;;;;;;11.63;76.84;100610.91;1812903;78;21050;-56
2021/04/15 11:52:36;;;;;;;10.25;9.20;;;;;;;11.37;77.97;100611.03;1827760;78;21265;-57
2021/04/15 11:55:10;;;;;;;;;;;;;;;11.22;79.12;100612.53;1760075;81;21217;-59
2021/04/15 11:57:39;;;;;;;11.28;9.75;;;;;;;11.08;79.77;100614.42;1766766;80;20239;-58
2021/04/15 12:00:14;;;;;;;12.98;9.88;;;;;;;11.00;80.43;100615.20;1795210;80;21055;-56
2021/04/15 12:03:01;;;;;;;12.05;9.55;;;;;;;10.92;80.88;100618.62;1757745;81;21558;-56
2021/04/15 12:05:38;;;;;;;14.40;10.65;;;;;;;10.87;81.29;100617.48;1795267;80;21520;-57
2021/04/15 12:08:34;;;;;;;12.80;11.18;;;;;;;10.80;81.46;100618.62;1757512;81;20975;-56
2021/04/15 12:11:10;;;;;;;15.85;11.15;;;;;;;10.72;81.61;100625.62;1795227;80;21137;-56
2021/04/15 12:14:02;;;;;;;13.72;10.55;;;;;;;10.67;81.86;100623.59;1768544;78;21184;-56
2021/04/15 12:17:04;;;;;;;11.93;10.65;;;;;;;10.66;81.69;100623.17;1770782;78;21145;-56
2021/04/15 12:23:01;;;;;;;12.95;11.22;;;;;;;10.76;81.49;100621.91;1889412;76;28110;-56
2021/04/15 12:25:50;;;;;;;11.63;10.28;;;;;;;10.77;81.48;100622.33;1859365;77;21107;-57
2021/04/15 12:28:26;;;;;;;12.90;10.65;;;;;;;10.84;81.11;100625.17;1859798;77;22482;-56
2021/04/15 12:31:18;;;;;;;17.45;10.63;;;;;;;10.94;80.36;100618.09;1846431;76;20941;-56
2021/04/15 12:34:18;;;;;;;13.08;11.30;;;;;;;10.99;79.83;100629.55;1826513;78;20891;-56
2021/04/15 12:36:54;;;;;;;13.80;11.75;;;;;;;11.08;79.42;100626.49;1857895;77;21000;-58